Huntsville's Hourly Summary for Sunday, July 8, 2018
Hour Temp
(f)
RH
(%)
Solar Rad.
(MJ/m2)
Rainfall
(in)
Wind
(mph)
7/8/2018 12:00 AM 71 91 0 0.01 0
7/8/2018 1:00 AM 70 91 0 0 0
7/8/2018 2:00 AM 70 91 0 0 0
7/8/2018 3:00 AM 69 91 0 0 0
7/8/2018 4:00 AM 69 92 0 0 0
7/8/2018 5:00 AM 69 92 0 0 0
7/8/2018 6:00 AM 69 92 0.03 0 0
7/8/2018 7:00 AM 70 86 0.21 0 0
7/8/2018 8:00 AM 76 73 0.99 0 0
7/8/2018 9:00 AM 78 71 1.26 0 0
7/8/2018 10:00 AM 81 67 1.85 0 0.82
7/8/2018 11:00 AM 82 58 1.97 0 0.93
7/8/2018 12:00 PM 77 61 0.66 0.14 2.19
7/8/2018 1:00 PM 78 69 1.79 0.01 0.12
7/8/2018 2:00 PM 83 59 3.03 0 1.45
7/8/2018 3:00 PM 77 66 0.32 0.15 1.55
7/8/2018 4:00 PM 72 87 0.56 0.03 0.81
7/8/2018 5:00 PM 76 77 1.31 0 1.07
7/8/2018 6:00 PM 77 80 0.44 0 0.56
7/8/2018 7:00 PM 76 82 0.18 0 0.21
7/8/2018 8:00 PM 74 87 0.01 0 0
7/8/2018 9:00 PM 73 90 0 0 0
7/8/2018 10:00 PM 72 91 0 0 0.01
7/8/2018 11:00 PM 72 89 0 0 0.01
Data Summary 74 80 14.61 0.34 0.41